Allen, South Dakota
Current Conditions -  °F | °C
As of 8:52 AM on Thursday 27 Nov 2014 (Local Time) from KIEN Reporting Station
Broken Clouds Broken Clouds  
Wind Chill: 23°   Ceiling: 12000
Heat Index: 31°   Visibility: 10mi
Dew Point: 23°   Wind: 9mph
Humidity: 72%   Direction: 200°SSW
Pressure: 30.09"   Gusts: NA
Location:  43.28°N, 101.93°W
Report Text: KIEN 271552Z AUTO 20008KT 10SM BKN120 M01/M05 A3009 RMK AO2 SLP220 T10061050
Loading
Personal Weather Stations






























Interactive Weather Map New forecast layout! Learn more

10-Day Weather Forecast

Advertisements
Track Severe Weather on mobile